sensor_id;sensor_type;location;lat;lon;timestamp;temperature;humidity
37658;DHT22;23500;53.268;8.308;2023-08-30T00:00:36;20.50;75.90
37658;DHT22;23500;53.268;8.308;2023-08-30T00:03:02;20.50;75.80
37658;DHT22;23500;53.268;8.308;2023-08-30T00:05:27;20.50;75.60
37658;DHT22;23500;53.268;8.308;2023-08-30T00:07:54;20.50;75.50
37658;DHT22;23500;53.268;8.308;2023-08-30T00:10:19;20.50;75.60
37658;DHT22;23500;53.268;8.308;2023-08-30T00:12:45;20.50;75.70
37658;DHT22;23500;53.268;8.308;2023-08-30T00:15:11;20.50;75.90
37658;DHT22;23500;53.268;8.308;2023-08-30T00:17:36;20.50;75.90
37658;DHT22;23500;53.268;8.308;2023-08-30T00:20:02;20.50;75.70
37658;DHT22;23500;53.268;8.308;2023-08-30T00:22:28;20.50;76.00
37658;DHT22;23500;53.268;8.308;2023-08-30T00:24:54;20.50;75.80
37658;DHT22;23500;53.268;8.308;2023-08-30T00:27:20;20.50;75.70
37658;DHT22;23500;53.268;8.308;2023-08-30T00:29:46;20.50;75.70
37658;DHT22;23500;53.268;8.308;2023-08-30T00:32:12;20.50;75.90
37658;DHT22;23500;53.268;8.308;2023-08-30T00:34:37;20.50;75.80
37658;DHT22;23500;53.268;8.308;2023-08-30T00:37:03;20.50;75.80
37658;DHT22;23500;53.268;8.308;2023-08-30T00:39:29;20.50;75.60
37658;DHT22;23500;53.268;8.308;2023-08-30T00:41:55;20.50;75.90
37658;DHT22;23500;53.268;8.308;2023-08-30T00:44:20;20.50;75.80
37658;DHT22;23500;53.268;8.308;2023-08-30T00:46:46;20.50;75.80
37658;DHT22;23500;53.268;8.308;2023-08-30T00:49:12;20.50;75.80
37658;DHT22;23500;53.268;8.308;2023-08-30T00:51:38;20.50;75.70
37658;DHT22;23500;53.268;8.308;2023-08-30T00:54:04;20.50;75.70
37658;DHT22;23500;53.268;8.308;2023-08-30T00:56:32;20.50;75.70
37658;DHT22;23500;53.268;8.308;2023-08-30T00:58:57;20.40;75.60
37658;DHT22;23500;53.268;8.308;2023-08-30T01:01:23;20.50;75.90
37658;DHT22;23500;53.268;8.308;2023-08-30T01:03:49;20.50;75.70
37658;DHT22;23500;53.268;8.308;2023-08-30T01:06:14;20.50;75.80
37658;DHT22;23500;53.268;8.308;2023-08-30T01:08:41;20.40;75.60
37658;DHT22;23500;53.268;8.308;2023-08-30T01:14:22;20.50;76.00
37658;DHT22;23500;53.268;8.308;2023-08-30T01:16:48;20.40;76.00
37658;DHT22;23500;53.268;8.308;2023-08-30T01:22:12;20.40;75.70
37658;DHT22;23500;53.268;8.308;2023-08-30T01:25:08;20.40;76.00
37658;DHT22;23500;53.268;8.308;2023-08-30T01:27:35;20.40;76.20
37658;DHT22;23500;53.268;8.308;2023-08-30T01:30:05;20.40;75.90
37658;DHT22;23500;53.268;8.308;2023-08-30T01:32:33;20.40;76.00
37658;DHT22;23500;53.268;8.308;2023-08-30T01:35:00;20.40;76.10
37658;DHT22;23500;53.268;8.308;2023-08-30T01:37:27;20.40;76.00
37658;DHT22;23500;53.268;8.308;2023-08-30T01:39:54;20.40;75.90
37658;DHT22;23500;53.268;8.308;2023-08-30T01:42:23;20.40;76.00
37658;DHT22;23500;53.268;8.308;2023-08-30T01:44:54;20.40;75.70
37658;DHT22;23500;53.268;8.308;2023-08-30T01:47:24;20.40;75.90
37658;DHT22;23500;53.268;8.308;2023-08-30T01:49:52;20.40;76.00
37658;DHT22;23500;53.268;8.308;2023-08-30T01:52:18;20.40;75.90
37658;DHT22;23500;53.268;8.308;2023-08-30T01:54:45;20.40;75.80
37658;DHT22;23500;53.268;8.308;2023-08-30T01:57:12;20.40;75.60
37658;DHT22;23500;53.268;8.308;2023-08-30T01:59:37;20.40;75.70
37658;DHT22;23500;53.268;8.308;2023-08-30T02:02:03;20.40;75.80
37658;DHT22;23500;53.268;8.308;2023-08-30T02:04:30;20.40;75.60
37658;DHT22;23500;53.268;8.308;2023-08-30T02:07:03;20.40;75.70
37658;DHT22;23500;53.268;8.308;2023-08-30T02:09:49;20.40;75.90
37658;DHT22;23500;53.268;8.308;2023-08-30T02:12:16;20.40;75.70
37658;DHT22;23500;53.268;8.308;2023-08-30T02:14:45;20.40;75.60
37658;DHT22;23500;53.268;8.308;2023-08-30T02:17:15;20.40;75.70
37658;DHT22;23500;53.268;8.308;2023-08-30T02:19:42;20.30;75.60
37658;DHT22;23500;53.268;8.308;2023-08-30T02:22:08;20.30;75.60
37658;DHT22;23500;53.268;8.308;2023-08-30T02:24:33;20.40;75.60
37658;DHT22;23500;53.268;8.308;2023-08-30T02:26:59;20.30;75.70
37658;DHT22;23500;53.268;8.308;2023-08-30T02:29:25;20.40;75.60
37658;DHT22;23500;53.268;8.308;2023-08-30T02:31:51;20.30;75.50
37658;DHT22;23500;53.268;8.308;2023-08-30T02:34:16;20.30;75.30
37658;DHT22;23500;53.268;8.308;2023-08-30T02:36:42;20.30;75.30
37658;DHT22;23500;53.268;8.308;2023-08-30T02:39:08;20.30;75.60
37658;DHT22;23500;53.268;8.308;2023-08-30T02:41:33;20.30;75.40
37658;DHT22;23500;53.268;8.308;2023-08-30T02:43:59;20.30;75.40
37658;DHT22;23500;53.268;8.308;2023-08-30T02:46:25;20.30;75.40
37658;DHT22;23500;53.268;8.308;2023-08-30T02:48:51;20.30;75.40
37658;DHT22;23500;53.268;8.308;2023-08-30T02:51:17;20.30;75.40
37658;DHT22;23500;53.268;8.308;2023-08-30T02:53:42;20.30;75.40
37658;DHT22;23500;53.268;8.308;2023-08-30T02:56:08;20.30;75.30
37658;DHT22;23500;53.268;8.308;2023-08-30T02:58:34;20.30;75.40
37658;DHT22;23500;53.268;8.308;2023-08-30T03:01:01;20.30;75.50
37658;DHT22;23500;53.268;8.308;2023-08-30T03:03:28;20.30;75.20
37658;DHT22;23500;53.268;8.308;2023-08-30T03:05:53;20.30;75.50
37658;DHT22;23500;53.268;8.308;2023-08-30T03:08:19;20.30;75.40
37658;DHT22;23500;53.268;8.308;2023-08-30T03:10:44;20.20;75.20
37658;DHT22;23500;53.268;8.308;2023-08-30T03:13:10;20.20;75.30
37658;DHT22;23500;53.268;8.308;2023-08-30T03:15:36;20.20;75.30
37658;DHT22;23500;53.268;8.308;2023-08-30T03:18:01;20.20;75.50
37658;DHT22;23500;53.268;8.308;2023-08-30T03:20:27;20.20;75.20
37658;DHT22;23500;53.268;8.308;2023-08-30T03:22:57;20.20;75.50
37658;DHT22;23500;53.268;8.308;2023-08-30T03:25:23;20.20;75.70
37658;DHT22;23500;53.268;8.308;2023-08-30T03:27:49;20.20;75.70
37658;DHT22;23500;53.268;8.308;2023-08-30T03:30:15;20.20;75.70
37658;DHT22;23500;53.268;8.308;2023-08-30T03:32:41;20.20;75.80
37658;DHT22;23500;53.268;8.308;2023-08-30T03:35:07;20.20;75.70
37658;DHT22;23500;53.268;8.308;2023-08-30T03:37:33;20.20;76.00
37658;DHT22;23500;53.268;8.308;2023-08-30T03:39:59;20.20;76.00
37658;DHT22;23500;53.268;8.308;2023-08-30T03:42:25;20.20;75.80
37658;DHT22;23500;53.268;8.308;2023-08-30T03:44:50;20.20;75.80
37658;DHT22;23500;53.268;8.308;2023-08-30T03:47:16;20.20;75.90
37658;DHT22;23500;53.268;8.308;2023-08-30T03:49:43;20.20;76.00
37658;DHT22;23500;53.268;8.308;2023-08-30T03:52:09;20.20;76.00
37658;DHT22;23500;53.268;8.308;2023-08-30T03:54:35;20.20;76.10
37658;DHT22;23500;53.268;8.308;2023-08-30T03:57:01;20.20;76.00
37658;DHT22;23500;53.268;8.308;2023-08-30T03:59:26;20.20;75.90
37658;DHT22;23500;53.268;8.308;2023-08-30T04:01:53;20.20;75.70
37658;DHT22;23500;53.268;8.308;2023-08-30T04:04:19;20.10;75.60
37658;DHT22;23500;53.268;8.308;2023-08-30T04:06:45;20.10;75.70
37658;DHT22;23500;53.268;8.308;2023-08-30T04:09:10;20.10;76.30
37658;DHT22;23500;53.268;8.308;2023-08-30T04:11:36;20.10;75.70
37658;DHT22;23500;53.268;8.308;2023-08-30T04:14:02;20.10;75.80
37658;DHT22;23500;53.268;8.308;2023-08-30T04:16:28;20.10;75.50
37658;DHT22;23500;53.268;8.308;2023-08-30T04:18:54;20.10;75.40
37658;DHT22;23500;53.268;8.308;2023-08-30T04:21:19;20.10;75.50
37658;DHT22;23500;53.268;8.308;2023-08-30T04:23:45;20.10;75.70
37658;DHT22;23500;53.268;8.308;2023-08-30T04:26:11;20.10;75.60
37658;DHT22;23500;53.268;8.308;2023-08-30T04:28:36;20.10;75.20
37658;DHT22;23500;53.268;8.308;2023-08-30T04:31:02;20.10;75.40
37658;DHT22;23500;53.268;8.308;2023-08-30T04:33:28;20.10;75.50
37658;DHT22;23500;53.268;8.308;2023-08-30T04:35:54;20.10;75.60
37658;DHT22;23500;53.268;8.308;2023-08-30T04:38:20;20.10;75.50
37658;DHT22;23500;53.268;8.308;2023-08-30T04:40:47;20.10;75.60
37658;DHT22;23500;53.268;8.308;2023-08-30T04:43:13;20.10;75.70
37658;DHT22;23500;53.268;8.308;2023-08-30T04:45:39;20.00;75.80
37658;DHT22;23500;53.268;8.308;2023-08-30T04:48:05;20.10;76.00
37658;DHT22;23500;53.268;8.308;2023-08-30T04:50:31;20.10;75.90
37658;DHT22;23500;53.268;8.308;2023-08-30T04:52:57;20.00;76.00
37658;DHT22;23500;53.268;8.308;2023-08-30T04:55:28;20.00;76.00
37658;DHT22;23500;53.268;8.308;2023-08-30T04:57:54;20.10;76.10
37658;DHT22;23500;53.268;8.308;2023-08-30T05:00:19;20.10;75.60
37658;DHT22;23500;53.268;8.308;2023-08-30T05:02:45;20.10;75.50
37658;DHT22;23500;53.268;8.308;2023-08-30T05:05:13;20.10;75.40
37658;DHT22;23500;53.268;8.308;2023-08-30T05:07:38;20.10;75.70
37658;DHT22;23500;53.268;8.308;2023-08-30T05:10:05;20.00;75.50
37658;DHT22;23500;53.268;8.308;2023-08-30T05:12:33;20.10;75.70
37658;DHT22;23500;53.268;8.308;2023-08-30T05:14:59;20.10;75.70
37658;DHT22;23500;53.268;8.308;2023-08-30T05:17:24;20.10;75.60
37658;DHT22;23500;53.268;8.308;2023-08-30T05:19:50;20.10;75.60
37658;DHT22;23500;53.268;8.308;2023-08-30T05:22:16;20.10;75.30
37658;DHT22;23500;53.268;8.308;2023-08-30T05:24:42;20.10;75.30
37658;DHT22;23500;53.268;8.308;2023-08-30T05:27:07;20.20;75.40
37658;DHT22;23500;53.268;8.308;2023-08-30T05:29:33;20.20;75.30
37658;DHT22;23500;53.268;8.308;2023-08-30T05:31:59;20.10;75.20
37658;DHT22;23500;53.268;8.308;2023-08-30T05:34:24;20.20;75.20
37658;DHT22;23500;53.268;8.308;2023-08-30T05:36:52;20.20;75.10
37658;DHT22;23500;53.268;8.308;2023-08-30T05:39:19;20.20;75.10
37658;DHT22;23500;53.268;8.308;2023-08-30T05:41:44;20.20;74.90
37658;DHT22;23500;53.268;8.308;2023-08-30T05:44:10;20.20;74.90
37658;DHT22;23500;53.268;8.308;2023-08-30T05:46:36;20.20;74.70
37658;DHT22;23500;53.268;8.308;2023-08-30T05:49:01;20.30;74.60
37658;DHT22;23500;53.268;8.308;2023-08-30T05:51:28;20.30;74.20
37658;DHT22;23500;53.268;8.308;2023-08-30T05:53:54;20.30;74.20
37658;DHT22;23500;53.268;8.308;2023-08-30T05:56:20;20.40;74.30
37658;DHT22;23500;53.268;8.308;2023-08-30T05:58:45;20.40;74.10
37658;DHT22;23500;53.268;8.308;2023-08-30T06:01:11;20.40;73.80
37658;DHT22;23500;53.268;8.308;2023-08-30T06:03:37;20.40;73.80
37658;DHT22;23500;53.268;8.308;2023-08-30T06:06:02;20.40;73.80
37658;DHT22;23500;53.268;8.308;2023-08-30T06:08:28;20.50;73.70
37658;DHT22;23500;53.268;8.308;2023-08-30T06:10:54;20.50;73.70
37658;DHT22;23500;53.268;8.308;2023-08-30T06:13:20;20.50;73.60
37658;DHT22;23500;53.268;8.308;2023-08-30T06:15:50;20.50;73.60
37658;DHT22;23500;53.268;8.308;2023-08-30T06:18:16;20.50;73.60
37658;DHT22;23500;53.268;8.308;2023-08-30T06:20:42;20.50;73.50
37658;DHT22;23500;53.268;8.308;2023-08-30T06:23:07;20.60;73.40
37658;DHT22;23500;53.268;8.308;2023-08-30T06:25:33;20.60;73.40
37658;DHT22;23500;53.268;8.308;2023-08-30T06:27:59;20.60;73.20
37658;DHT22;23500;53.268;8.308;2023-08-30T06:30:27;20.60;73.30
37658;DHT22;23500;53.268;8.308;2023-08-30T06:32:54;20.60;73.50
37658;DHT22;23500;53.268;8.308;2023-08-30T06:35:19;20.70;73.60
37658;DHT22;23500;53.268;8.308;2023-08-30T06:37:45;20.70;73.50
37658;DHT22;23500;53.268;8.308;2023-08-30T06:40:11;20.70;74.00
37658;DHT22;23500;53.268;8.308;2023-08-30T06:42:37;20.80;73.80
37658;DHT22;23500;53.268;8.308;2023-08-30T06:45:04;20.80;73.30
37658;DHT22;23500;53.268;8.308;2023-08-30T06:47:29;20.80;73.20
37658;DHT22;23500;53.268;8.308;2023-08-30T06:49:55;20.80;73.00
37658;DHT22;23500;53.268;8.308;2023-08-30T06:52:21;20.80;72.80
37658;DHT22;23500;53.268;8.308;2023-08-30T06:54:47;20.90;73.00
37658;DHT22;23500;53.268;8.308;2023-08-30T06:57:13;20.90;72.90
37658;DHT22;23500;53.268;8.308;2023-08-30T06:59:39;20.90;72.80
37658;DHT22;23500;53.268;8.308;2023-08-30T07:02:04;21.00;72.50
37658;DHT22;23500;53.268;8.308;2023-08-30T07:04:30;21.00;72.50
37658;DHT22;23500;53.268;8.308;2023-08-30T07:06:55;21.10;72.20
37658;DHT22;23500;53.268;8.308;2023-08-30T07:09:21;21.10;72.30
37658;DHT22;23500;53.268;8.308;2023-08-30T07:11:53;21.10;72.10
37658;DHT22;23500;53.268;8.308;2023-08-30T07:14:19;21.20;71.80
37658;DHT22;23500;53.268;8.308;2023-08-30T07:16:46;21.20;71.70
37658;DHT22;23500;53.268;8.308;2023-08-30T07:19:11;21.20;71.70
37658;DHT22;23500;53.268;8.308;2023-08-30T07:21:37;21.30;71.40
37658;DHT22;23500;53.268;8.308;2023-08-30T07:24:05;21.40;71.70
37658;DHT22;23500;53.268;8.308;2023-08-30T07:26:31;21.40;71.40
37658;DHT22;23500;53.268;8.308;2023-08-30T07:28:57;21.50;71.50
37658;DHT22;23500;53.268;8.308;2023-08-30T07:31:22;21.50;71.40
37658;DHT22;23500;53.268;8.308;2023-08-30T07:33:48;21.60;71.00
37658;DHT22;23500;53.268;8.308;2023-08-30T07:36:14;21.60;70.90
37658;DHT22;23500;53.268;8.308;2023-08-30T07:38:39;21.70;70.80
37658;DHT22;23500;53.268;8.308;2023-08-30T07:41:05;21.70;70.60
37658;DHT22;23500;53.268;8.308;2023-08-30T07:43:31;21.80;70.40
37658;DHT22;23500;53.268;8.308;2023-08-30T07:45:57;21.80;69.90
37658;DHT22;23500;53.268;8.308;2023-08-30T07:48:23;21.90;69.80
37658;DHT22;23500;53.268;8.308;2023-08-30T07:50:49;21.90;69.70
37658;DHT22;23500;53.268;8.308;2023-08-30T07:53:14;22.00;69.60
37658;DHT22;23500;53.268;8.308;2023-08-30T07:55:40;22.00;69.60
37658;DHT22;23500;53.268;8.308;2023-08-30T07:58:06;21.90;69.50
37658;DHT22;23500;53.268;8.308;2023-08-30T08:00:34;21.90;69.10
37658;DHT22;23500;53.268;8.308;2023-08-30T08:03:00;21.90;68.90
37658;DHT22;23500;53.268;8.308;2023-08-30T08:05:26;21.90;68.60
37658;DHT22;23500;53.268;8.308;2023-08-30T08:07:52;21.90;68.20
37658;DHT22;23500;53.268;8.308;2023-08-30T08:10:18;21.90;68.60
37658;DHT22;23500;53.268;8.308;2023-08-30T08:12:44;21.90;68.70
37658;DHT22;23500;53.268;8.308;2023-08-30T08:15:10;21.90;69.10
37658;DHT22;23500;53.268;8.308;2023-08-30T08:17:36;22.00;69.40
37658;DHT22;23500;53.268;8.308;2023-08-30T08:20:03;22.00;69.40
37658;DHT22;23500;53.268;8.308;2023-08-30T08:22:29;22.00;69.40
37658;DHT22;23500;53.268;8.308;2023-08-30T08:24:55;22.10;69.40
37658;DHT22;23500;53.268;8.308;2023-08-30T08:27:22;22.10;69.30
37658;DHT22;23500;53.268;8.308;2023-08-30T08:29:49;22.10;69.30
37658;DHT22;23500;53.268;8.308;2023-08-30T08:32:15;22.10;69.50
37658;DHT22;23500;53.268;8.308;2023-08-30T08:34:41;22.10;69.60
37658;DHT22;23500;53.268;8.308;2023-08-30T08:37:07;22.10;69.70
37658;DHT22;23500;53.268;8.308;2023-08-30T08:39:33;22.10;69.60
37658;DHT22;23500;53.268;8.308;2023-08-30T08:41:59;22.10;69.70
37658;DHT22;23500;53.268;8.308;2023-08-30T08:44:26;22.10;69.80
37658;DHT22;23500;53.268;8.308;2023-08-30T08:46:56;22.00;69.20
37658;DHT22;23500;53.268;8.308;2023-08-30T08:49:23;22.10;69.30
37658;DHT22;23500;53.268;8.308;2023-08-30T08:51:53;22.10;69.50
37658;DHT22;23500;53.268;8.308;2023-08-30T08:54:20;22.10;69.60
37658;DHT22;23500;53.268;8.308;2023-08-30T08:56:46;22.10;69.70
37658;DHT22;23500;53.268;8.308;2023-08-30T08:59:12;22.10;69.70
37658;DHT22;23500;53.268;8.308;2023-08-30T09:01:41;22.00;69.60
37658;DHT22;23500;53.268;8.308;2023-08-30T09:04:11;21.90;69.70
37658;DHT22;23500;53.268;8.308;2023-08-30T09:06:38;21.90;69.10
37658;DHT22;23500;53.268;8.308;2023-08-30T09:09:09;21.90;69.40
37658;DHT22;23500;53.268;8.308;2023-08-30T09:11:34;21.90;69.00
37658;DHT22;23500;53.268;8.308;2023-08-30T09:14:00;21.80;69.20
37658;DHT22;23500;53.268;8.308;2023-08-30T09:16:27;21.80;68.50
37658;DHT22;23500;53.268;8.308;2023-08-30T09:19:03;21.80;68.30
37658;DHT22;23500;53.268;8.308;2023-08-30T09:21:30;21.80;68.60
37658;DHT22;23500;53.268;8.308;2023-08-30T09:24:03;21.80;67.50
37658;DHT22;23500;53.268;8.308;2023-08-30T09:26:30;21.90;68.40
37658;DHT22;23500;53.268;8.308;2023-08-30T09:29:05;21.90;67.70
37658;DHT22;23500;53.268;8.308;2023-08-30T09:31:34;21.90;67.70
37658;DHT22;23500;53.268;8.308;2023-08-30T09:34:00;21.90;67.90
37658;DHT22;23500;53.268;8.308;2023-08-30T09:36:34;21.90;68.00
37658;DHT22;23500;53.268;8.308;2023-08-30T09:39:03;21.90;67.90
37658;DHT22;23500;53.268;8.308;2023-08-30T09:41:30;21.90;67.70
37658;DHT22;23500;53.268;8.308;2023-08-30T09:43:56;21.90;67.40
37658;DHT22;23500;53.268;8.308;2023-08-30T09:46:22;21.90;67.80
37658;DHT22;23500;53.268;8.308;2023-08-30T09:48:49;21.90;67.70
37658;DHT22;23500;53.268;8.308;2023-08-30T09:51:15;21.90;68.00
37658;DHT22;23500;53.268;8.308;2023-08-30T09:53:43;21.90;67.60
37658;DHT22;23500;53.268;8.308;2023-08-30T09:56:12;21.90;67.70
37658;DHT22;23500;53.268;8.308;2023-08-30T09:58:40;21.90;68.00
37658;DHT22;23500;53.268;8.308;2023-08-30T10:01:07;21.90;68.10
37658;DHT22;23500;53.268;8.308;2023-08-30T10:03:34;21.80;67.70
37658;DHT22;23500;53.268;8.308;2023-08-30T10:06:01;21.90;68.90
37658;DHT22;23500;53.268;8.308;2023-08-30T10:08:32;21.90;67.90
37658;DHT22;23500;53.268;8.308;2023-08-30T10:10:59;21.90;67.60
37658;DHT22;23500;53.268;8.308;2023-08-30T10:13:25;21.80;66.50
37658;DHT22;23500;53.268;8.308;2023-08-30T10:15:56;21.90;67.50
37658;DHT22;23500;53.268;8.308;2023-08-30T10:18:25;21.90;67.50
37658;DHT22;23500;53.268;8.308;2023-08-30T10:20:54;21.90;67.10
37658;DHT22;23500;53.268;8.308;2023-08-30T10:23:21;21.90;67.40
37658;DHT22;23500;53.268;8.308;2023-08-30T10:25:49;21.90;67.00
37658;DHT22;23500;53.268;8.308;2023-08-30T10:28:16;21.90;67.20
37658;DHT22;23500;53.268;8.308;2023-08-30T10:30:43;22.00;67.20
37658;DHT22;23500;53.268;8.308;2023-08-30T10:33:12;21.90;67.00
37658;DHT22;23500;53.268;8.308;2023-08-30T10:35:47;22.00;67.00
37658;DHT22;23500;53.268;8.308;2023-08-30T10:38:24;21.90;66.80
37658;DHT22;23500;53.268;8.308;2023-08-30T10:40:52;22.00;67.00
37658;DHT22;23500;53.268;8.308;2023-08-30T10:43:28;22.00;66.50
37658;DHT22;23500;53.268;8.308;2023-08-30T10:46:02;22.10;66.70
37658;DHT22;23500;53.268;8.308;2023-08-30T10:48:38;22.10;66.80
37658;DHT22;23500;53.268;8.308;2023-08-30T10:51:19;22.00;67.30
37658;DHT22;23500;53.268;8.308;2023-08-30T10:53:58;22.00;67.10
37658;DHT22;23500;53.268;8.308;2023-08-30T10:56:30;22.00;65.50
37658;DHT22;23500;53.268;8.308;2023-08-30T10:58:56;22.00;64.80
37658;DHT22;23500;53.268;8.308;2023-08-30T11:01:23;22.00;65.80
37658;DHT22;23500;53.268;8.308;2023-08-30T11:03:49;22.10;66.70
37658;DHT22;23500;53.268;8.308;2023-08-30T11:06:15;22.10;67.20
37658;DHT22;23500;53.268;8.308;2023-08-30T11:08:43;22.10;67.20
37658;DHT22;23500;53.268;8.308;2023-08-30T11:11:09;22.10;67.20
37658;DHT22;23500;53.268;8.308;2023-08-30T11:13:36;22.00;67.20
37658;DHT22;23500;53.268;8.308;2023-08-30T11:16:02;22.00;67.10
37658;DHT22;23500;53.268;8.308;2023-08-30T11:18:36;22.00;67.10
37658;DHT22;23500;53.268;8.308;2023-08-30T11:21:03;22.10;67.10
37658;DHT22;23500;53.268;8.308;2023-08-30T11:23:29;22.00;67.10
37658;DHT22;23500;53.268;8.308;2023-08-30T11:25:55;22.00;67.10
37658;DHT22;23500;53.268;8.308;2023-08-30T11:28:25;22.00;67.10
37658;DHT22;23500;53.268;8.308;2023-08-30T11:30:54;22.00;67.10
37658;DHT22;23500;53.268;8.308;2023-08-30T11:33:21;22.00;67.20
37658;DHT22;23500;53.268;8.308;2023-08-30T11:35:49;22.00;67.40
37658;DHT22;23500;53.268;8.308;2023-08-30T11:38:15;21.90;67.50
37658;DHT22;23500;53.268;8.308;2023-08-30T11:40:41;21.90;67.50
37658;DHT22;23500;53.268;8.308;2023-08-30T11:43:07;21.90;67.70
37658;DHT22;23500;53.268;8.308;2023-08-30T11:45:34;21.90;67.80
37658;DHT22;23500;53.268;8.308;2023-08-30T11:48:00;21.90;67.80
37658;DHT22;23500;53.268;8.308;2023-08-30T11:50:27;21.90;67.90
37658;DHT22;23500;53.268;8.308;2023-08-30T11:52:53;21.90;67.90
37658;DHT22;23500;53.268;8.308;2023-08-30T11:55:21;21.90;67.90
37658;DHT22;23500;53.268;8.308;2023-08-30T11:57:49;21.90;67.90
37658;DHT22;23500;53.268;8.308;2023-08-30T12:00:17;22.00;68.00
37658;DHT22;23500;53.268;8.308;2023-08-30T12:02:44;22.00;68.00
37658;DHT22;23500;53.268;8.308;2023-08-30T12:05:12;22.00;68.00
37658;DHT22;23500;53.268;8.308;2023-08-30T12:07:38;22.00;68.20
37658;DHT22;23500;53.268;8.308;2023-08-30T12:10:11;22.00;68.20
37658;DHT22;23500;53.268;8.308;2023-08-30T12:12:37;22.00;68.30
37658;DHT22;23500;53.268;8.308;2023-08-30T12:15:13;22.00;68.30
37658;DHT22;23500;53.268;8.308;2023-08-30T12:17:40;22.00;68.40
37658;DHT22;23500;53.268;8.308;2023-08-30T12:20:13;22.00;68.50
37658;DHT22;23500;53.268;8.308;2023-08-30T12:22:39;22.00;68.60
37658;DHT22;23500;53.268;8.308;2023-08-30T12:25:22;22.00;68.60
37658;DHT22;23500;53.268;8.308;2023-08-30T12:27:52;22.00;68.70
37658;DHT22;23500;53.268;8.308;2023-08-30T12:30:18;22.00;68.70
37658;DHT22;23500;53.268;8.308;2023-08-30T12:32:45;22.00;68.70
37658;DHT22;23500;53.268;8.308;2023-08-30T12:35:11;22.00;68.70
37658;DHT22;23500;53.268;8.308;2023-08-30T12:37:36;22.00;68.80
37658;DHT22;23500;53.268;8.308;2023-08-30T12:40:02;21.90;68.80
37658;DHT22;23500;53.268;8.308;2023-08-30T12:42:28;21.90;68.80
37658;DHT22;23500;53.268;8.308;2023-08-30T12:44:54;21.90;68.80
37658;DHT22;23500;53.268;8.308;2023-08-30T12:47:20;21.90;68.80
37658;DHT22;23500;53.268;8.308;2023-08-30T12:49:46;21.90;68.80
37658;DHT22;23500;53.268;8.308;2023-08-30T12:52:12;21.90;68.90
37658;DHT22;23500;53.268;8.308;2023-08-30T12:54:37;21.90;69.00
37658;DHT22;23500;53.268;8.308;2023-08-30T12:57:03;21.90;69.00
37658;DHT22;23500;53.268;8.308;2023-08-30T12:59:29;21.90;68.90
37658;DHT22;23500;53.268;8.308;2023-08-30T13:01:55;21.90;69.00
37658;DHT22;23500;53.268;8.308;2023-08-30T13:04:20;21.90;69.00
37658;DHT22;23500;53.268;8.308;2023-08-30T13:06:46;21.90;69.10
37658;DHT22;23500;53.268;8.308;2023-08-30T13:09:12;21.90;69.20
37658;DHT22;23500;53.268;8.308;2023-08-30T13:11:37;21.90;69.20
37658;DHT22;23500;53.268;8.308;2023-08-30T13:14:03;21.80;69.20
37658;DHT22;23500;53.268;8.308;2023-08-30T13:16:29;21.80;69.30
37658;DHT22;23500;53.268;8.308;2023-08-30T13:18:54;21.80;69.50
37658;DHT22;23500;53.268;8.308;2023-08-30T13:21:20;21.80;69.50
37658;DHT22;23500;53.268;8.308;2023-08-30T13:23:45;21.80;69.60
37658;DHT22;23500;53.268;8.308;2023-08-30T13:26:11;21.80;69.70
37658;DHT22;23500;53.268;8.308;2023-08-30T13:28:37;21.80;69.70
37658;DHT22;23500;53.268;8.308;2023-08-30T13:31:02;21.80;69.70
37658;DHT22;23500;53.268;8.308;2023-08-30T13:33:29;21.80;69.80
37658;DHT22;23500;53.268;8.308;2023-08-30T13:35:54;21.80;70.50
37658;DHT22;23500;53.268;8.308;2023-08-30T13:38:20;21.80;69.80
37658;DHT22;23500;53.268;8.308;2023-08-30T13:40:46;21.70;69.80
37658;DHT22;23500;53.268;8.308;2023-08-30T13:43:11;21.70;70.00
37658;DHT22;23500;53.268;8.308;2023-08-30T13:45:37;21.70;70.00
37658;DHT22;23500;53.268;8.308;2023-08-30T13:48:03;21.70;70.10
37658;DHT22;23500;53.268;8.308;2023-08-30T13:50:28;21.80;70.20
37658;DHT22;23500;53.268;8.308;2023-08-30T13:52:56;21.80;70.10
37658;DHT22;23500;53.268;8.308;2023-08-30T13:55:22;21.80;70.10
37658;DHT22;23500;53.268;8.308;2023-08-30T13:57:47;21.80;70.80
37658;DHT22;23500;53.268;8.308;2023-08-30T14:00:13;21.80;70.10
37658;DHT22;23500;53.268;8.308;2023-08-30T14:02:39;21.80;70.00
37658;DHT22;23500;53.268;8.308;2023-08-30T14:05:05;21.80;70.00
37658;DHT22;23500;53.268;8.308;2023-08-30T14:07:31;21.90;70.00
37658;DHT22;23500;53.268;8.308;2023-08-30T14:09:58;21.90;70.10
37658;DHT22;23500;53.268;8.308;2023-08-30T14:12:23;21.90;70.10
37658;DHT22;23500;53.268;8.308;2023-08-30T14:14:49;21.90;70.20
37658;DHT22;23500;53.268;8.308;2023-08-30T14:17:15;21.90;70.20
37658;DHT22;23500;53.268;8.308;2023-08-30T14:19:40;21.90;70.20
37658;DHT22;23500;53.268;8.308;2023-08-30T14:22:06;21.80;70.30
37658;DHT22;23500;53.268;8.308;2023-08-30T14:24:32;21.80;70.50
37658;DHT22;23500;53.268;8.308;2023-08-30T14:27:00;21.80;70.60
37658;DHT22;23500;53.268;8.308;2023-08-30T14:29:25;21.80;70.80
37658;DHT22;23500;53.268;8.308;2023-08-30T14:31:51;21.70;70.90
37658;DHT22;23500;53.268;8.308;2023-08-30T14:34:17;21.80;71.10
37658;DHT22;23500;53.268;8.308;2023-08-30T14:36:42;21.70;71.10
37658;DHT22;23500;53.268;8.308;2023-08-30T14:39:09;21.70;71.30
37658;DHT22;23500;53.268;8.308;2023-08-30T14:41:37;21.70;71.30
37658;DHT22;23500;53.268;8.308;2023-08-30T14:44:03;21.70;71.40
37658;DHT22;23500;53.268;8.308;2023-08-30T14:46:29;21.70;71.50
37658;DHT22;23500;53.268;8.308;2023-08-30T14:48:55;21.70;71.60
37658;DHT22;23500;53.268;8.308;2023-08-30T14:51:20;21.70;71.80
37658;DHT22;23500;53.268;8.308;2023-08-30T14:53:46;21.60;71.80
37658;DHT22;23500;53.268;8.308;2023-08-30T14:56:12;21.60;71.80
37658;DHT22;23500;53.268;8.308;2023-08-30T14:58:38;21.60;71.90
37658;DHT22;23500;53.268;8.308;2023-08-30T15:01:04;21.70;71.90
37658;DHT22;23500;53.268;8.308;2023-08-30T15:03:30;21.70;72.00
37658;DHT22;23500;53.268;8.308;2023-08-30T15:05:56;21.70;72.00
37658;DHT22;23500;53.268;8.308;2023-08-30T15:08:25;21.70;72.00
37658;DHT22;23500;53.268;8.308;2023-08-30T15:10:51;21.70;71.90
37658;DHT22;23500;53.268;8.308;2023-08-30T15:13:17;21.70;71.90
37658;DHT22;23500;53.268;8.308;2023-08-30T15:15:43;21.70;72.00
37658;DHT22;23500;53.268;8.308;2023-08-30T15:18:08;21.70;71.90
37658;DHT22;23500;53.268;8.308;2023-08-30T15:20:36;21.70;72.00
37658;DHT22;23500;53.268;8.308;2023-08-30T15:23:02;21.70;72.00
37658;DHT22;23500;53.268;8.308;2023-08-30T15:25:28;21.70;72.00
37658;DHT22;23500;53.268;8.308;2023-08-30T15:27:54;21.70;72.00
37658;DHT22;23500;53.268;8.308;2023-08-30T15:30:19;21.70;72.10
37658;DHT22;23500;53.268;8.308;2023-08-30T15:32:45;21.70;72.10